Huvudsida
METAR-TAF:

METAR-TAF

Flygplatser :

Sandefjords, Norge

Sandefjords flygplats. Torp

latitud: 59-12N, longitud: 010-16E, höjd: 8 m

Aktuellt väderrapport

Denna rapport gjordes för 40 minuter sedan, klockan 10:20 UTC
Vind 6 kt från nord
Temperatur -4°C
Fuktighet 100%
Tryck 985 hPa
Sikt 10 km eller mer
Inga moln under 1 500 m eller inga cumulonimbus

METAR: ENTO 171020Z 35006KT CAVOK M04/M04 Q0985

Tid: 12:00 (11:00 UTC)

Väderprognos

Prognos gäller från 17 kl. 06 UTC till 18 kl. 06 UTC
Vind 5 kt från nord/nordväst
Sikt 10 km eller mer
Spridda moln på en höjd av 500 ft
Brutna moln på en höjd av 2000 ft
Temporärt
från 17 kl. 06 UTC till 18 kl. 06 UTC
Brutna moln på en höjd av 400 ft

TAF: ENTO 1706/1806 34005KT 9999 SCT005 BKN020 TEMPO 1706/1806 BKN004

Aktuella väderrapporter och prognoser från 4000 flygplatser (METAR- och TAF-rapporter).

De tillgängliga stationerna syns som gula och röda prickar på kartan.

För musen över prickarna för att se namnen på stationerna.

Klicka sedan för att få väderrapporter och prognoser.

För att ändra kartan: Klicka på de gröna knapparna med ett svart kors på för att zooma in; den gröna knappen med ett streck på för att zooma ut; eller på de gröna pilarna för angränsande kartor.


METAR-TAF: